createdAt,value
2023-11-23T00:00:14.833Z,1010.29
2023-11-23T00:01:14.801Z,1010.36
2023-11-23T00:02:14.837Z,1010.34
2023-11-23T00:03:14.756Z,1010.31
2023-11-23T00:04:14.777Z,1010.27
2023-11-23T00:05:14.727Z,1010.29
2023-11-23T00:06:14.699Z,1010.24
2023-11-23T00:07:14.656Z,1010.29
2023-11-23T00:08:14.663Z,1010.33
2023-11-23T00:09:14.705Z,1010.21
2023-11-23T00:10:14.662Z,1010.21
2023-11-23T00:11:14.638Z,1010.19
2023-11-23T00:12:14.705Z,1010.10
2023-11-23T00:13:14.613Z,1010.03
2023-11-23T00:14:14.596Z,1009.92
2023-11-23T00:15:14.657Z,1009.93
2023-11-23T00:16:14.641Z,1009.94
2023-11-23T00:17:14.588Z,1009.98
2023-11-23T00:18:14.614Z,1009.97
2023-11-23T00:19:14.552Z,1009.92
2023-11-23T00:20:14.522Z,1009.95
2023-11-23T00:21:14.570Z,1009.88
2023-11-23T00:22:14.502Z,1009.85
2023-11-23T00:23:14.487Z,1009.75
2023-11-23T00:24:14.543Z,1009.83
2023-11-23T00:25:14.486Z,1009.80
2023-11-23T00:26:14.464Z,1009.84
2023-11-23T00:27:14.522Z,1009.86
2023-11-23T00:28:14.461Z,1009.85
2023-11-23T00:29:22.039Z,1009.79
2023-11-23T00:30:14.551Z,1009.73
2023-11-23T00:31:14.412Z,1009.72
2023-11-23T00:32:14.414Z,1009.82
2023-11-23T00:33:14.461Z,1009.79
2023-11-23T00:34:14.408Z,1009.80
2023-11-23T00:35:14.353Z,1009.78
2023-11-23T00:36:14.397Z,1009.79
2023-11-23T00:37:14.334Z,1009.86
2023-11-23T00:38:14.345Z,1009.89
2023-11-23T00:39:14.353Z,1009.82
2023-11-23T00:40:14.318Z,1009.92
2023-11-23T00:41:14.340Z,1009.94
2023-11-23T00:42:14.343Z,1009.95
2023-11-23T00:43:14.319Z,1010.01
2023-11-23T00:44:14.274Z,1010.00
2023-11-23T00:45:14.302Z,1010.02
2023-11-23T00:46:14.231Z,1010.07
2023-11-23T00:47:14.310Z,1010.03
2023-11-23T00:48:14.306Z,1009.97
2023-11-23T00:49:14.213Z,1009.87
2023-11-23T00:50:14.188Z,1009.94
2023-11-23T00:51:14.264Z,1009.90
2023-11-23T00:52:14.172Z,1009.93
2023-11-23T00:53:14.195Z,1009.95
2023-11-23T00:54:14.196Z,1009.88
2023-11-23T00:55:14.131Z,1009.79
2023-11-23T00:56:14.135Z,1009.79
2023-11-23T00:57:14.303Z,1009.80
2023-11-23T00:58:14.167Z,1009.79
2023-11-23T00:59:14.096Z,1009.79
2023-11-23T01:00:14.141Z,1009.72
2023-11-23T01:01:14.195Z,1009.57
2023-11-23T01:02:14.208Z,1009.59
2023-11-23T01:03:14.195Z,1009.59
2023-11-23T01:04:14.112Z,1009.62
2023-11-23T01:05:14.026Z,1009.56
2023-11-23T01:06:14.047Z,1009.53
2023-11-23T01:07:14.033Z,1009.57
2023-11-23T01:08:14.012Z,1009.59
2023-11-23T01:09:14.057Z,1009.54
2023-11-23T01:10:13.968Z,1009.53
2023-11-23T01:11:13.958Z,1009.50
2023-11-23T01:12:13.990Z,1009.46
2023-11-23T01:13:13.992Z,1009.45
2023-11-23T01:14:14.008Z,1009.42
2023-11-23T01:15:13.942Z,1009.32
2023-11-23T01:16:13.900Z,1009.41
2023-11-23T01:17:13.927Z,1009.35
2023-11-23T01:18:13.917Z,1009.31
2023-11-23T01:19:13.909Z,1009.22
2023-11-23T01:20:13.861Z,1009.19
2023-11-23T01:21:13.880Z,1009.14
2023-11-23T01:22:13.859Z,1009.15
2023-11-23T01:23:13.832Z,1009.14
2023-11-23T01:24:13.856Z,1009.06
2023-11-23T01:25:13.821Z,1009.17
2023-11-23T01:26:13.824Z,1009.13
2023-11-23T01:27:13.929Z,1009.19
2023-11-23T01:28:13.785Z,1009.20
2023-11-23T01:29:13.888Z,1009.26
2023-11-23T01:30:13.824Z,1009.17
2023-11-23T01:31:13.739Z,1009.09
2023-11-23T01:32:13.778Z,1009.12
2023-11-23T01:33:13.862Z,1009.11
2023-11-23T01:34:13.831Z,1009.17
2023-11-23T01:35:13.715Z,1009.10
2023-11-23T01:36:13.721Z,1009.06
2023-11-23T01:37:13.698Z,1009.11
2023-11-23T01:38:13.672Z,1009.04
2023-11-23T01:39:13.718Z,1009.06
2023-11-23T01:40:13.660Z,1008.97
2023-11-23T01:41:13.638Z,1009.00
2023-11-23T01:42:13.756Z,1008.99
2023-11-23T01:43:13.613Z,1009.04
2023-11-23T01:44:13.646Z,1008.96
2023-11-23T01:45:13.644Z,1008.99
2023-11-23T01:46:13.610Z,1009.00
2023-11-23T01:47:13.601Z,1008.99
2023-11-23T01:48:13.688Z,1009.01
2023-11-23T01:49:13.564Z,1008.98
2023-11-23T01:50:14.784Z,1009.02
2023-11-23T01:51:13.650Z,1009.02
2023-11-23T01:52:13.527Z,1008.95
2023-11-23T01:53:13.568Z,1008.92
2023-11-23T01:54:13.530Z,1008.99
2023-11-23T01:55:13.488Z,1008.96
2023-11-23T01:56:13.483Z,1008.88
2023-11-23T01:57:13.532Z,1008.95
2023-11-23T01:58:13.496Z,1008.91
2023-11-23T01:59:13.440Z,1008.97
2023-11-23T02:00:13.469Z,1008.90
2023-11-23T02:01:13.437Z,1008.88
2023-11-23T02:02:13.470Z,1008.92
2023-11-23T02:03:13.443Z,1008.82
2023-11-23T02:04:13.443Z,1008.80
2023-11-23T02:05:13.381Z,1008.83
2023-11-23T02:06:13.569Z,1008.75
2023-11-23T02:07:13.362Z,1008.84
2023-11-23T02:08:13.343Z,1008.78
2023-11-23T02:09:13.356Z,1008.77
2023-11-23T02:10:13.379Z,1008.78
2023-11-23T02:11:13.334Z,1008.75
2023-11-23T02:12:13.298Z,1008.69
2023-11-23T02:13:13.319Z,1008.83
2023-11-23T02:14:13.269Z,1008.81
2023-11-23T02:15:13.326Z,1008.79
2023-11-23T02:16:13.289Z,1008.70
2023-11-23T02:17:13.280Z,1008.78
2023-11-23T02:18:13.303Z,1008.68
2023-11-23T02:20:22.491Z,1008.68
2023-11-23T02:21:22.528Z,1008.68
2023-11-23T02:22:22.486Z,1008.61
2023-11-23T02:23:22.471Z,1008.53
2023-11-23T02:24:22.482Z,1008.58
2023-11-23T02:25:22.434Z,1008.49
2023-11-23T02:26:22.416Z,1008.46
2023-11-23T02:27:22.448Z,1008.37
2023-11-23T02:28:22.422Z,1008.40
2023-11-23T02:29:22.400Z,1008.37
2023-11-23T02:30:22.436Z,1008.35
2023-11-23T02:31:22.401Z,1008.31
2023-11-23T02:32:22.397Z,1008.30
2023-11-23T02:33:22.428Z,1008.33
2023-11-23T02:34:22.379Z,1008.30
2023-11-23T02:35:22.491Z,1008.29
2023-11-23T02:36:22.361Z,1008.35
2023-11-23T02:37:22.306Z,1008.29
2023-11-23T02:38:22.329Z,1008.23
2023-11-23T02:39:22.285Z,1008.27
2023-11-23T02:40:22.303Z,1008.23
2023-11-23T02:41:22.281Z,1008.19
2023-11-23T02:42:22.288Z,1008.21
2023-11-23T02:43:22.247Z,1008.21
2023-11-23T02:44:22.262Z,1008.20
2023-11-23T02:45:22.388Z,1008.15
2023-11-23T02:46:22.258Z,1008.21
2023-11-23T02:47:22.197Z,1008.18
2023-11-23T02:48:22.316Z,1008.13
2023-11-23T02:49:22.176Z,1008.09
2023-11-23T02:50:22.184Z,1007.99
2023-11-23T02:51:22.217Z,1008.10
2023-11-23T02:52:22.174Z,1008.15
2023-11-23T02:53:22.144Z,1008.02
2023-11-23T02:54:22.134Z,1008.16
2023-11-23T02:55:22.105Z,1008.05
2023-11-23T02:56:22.113Z,1008.07
2023-11-23T02:57:22.107Z,1008.12
2023-11-23T02:58:22.096Z,1008.17
2023-11-23T02:59:22.091Z,1008.06
2023-11-23T03:00:22.145Z,1008.12
2023-11-23T03:01:22.078Z,1008.10
2023-11-23T03:02:22.150Z,1008.16
2023-11-23T03:03:22.082Z,1008.10
2023-11-23T03:04:22.110Z,1008.18
2023-11-23T03:05:22.045Z,1008.13
2023-11-23T03:06:22.056Z,1008.11
2023-11-23T03:07:21.972Z,1008.08
2023-11-23T03:08:21.959Z,1008.13
2023-11-23T03:09:22.110Z,1008.11
2023-11-23T03:10:21.956Z,1008.04
2023-11-23T03:11:21.959Z,1007.98
2023-11-23T03:12:21.996Z,1007.99
2023-11-23T03:13:21.927Z,1007.98
2023-11-23T03:14:21.925Z,1008.02
2023-11-23T03:15:22.014Z,1007.97
2023-11-23T03:16:21.884Z,1007.90
2023-11-23T03:17:21.936Z,1007.84
2023-11-23T03:18:22.055Z,1007.90
2023-11-23T03:19:21.912Z,1007.86
2023-11-23T03:20:21.854Z,1007.79
2023-11-23T03:21:21.883Z,1007.84
2023-11-23T03:22:21.834Z,1007.82
2023-11-23T03:23:21.813Z,1007.85
2023-11-23T03:24:21.815Z,1007.80
2023-11-23T03:25:21.798Z,1007.84
2023-11-23T03:26:21.813Z,1007.73
2023-11-23T03:27:21.829Z,1007.78
2023-11-23T03:28:21.741Z,1007.73
2023-11-23T03:29:21.766Z,1007.65
2023-11-23T03:30:21.734Z,1007.66
2023-11-23T03:31:21.746Z,1007.65
2023-11-23T03:32:21.726Z,1007.67
2023-11-23T03:33:21.793Z,1007.53
2023-11-23T03:34:21.931Z,1007.52
2023-11-23T03:35:21.697Z,1007.55
2023-11-23T03:36:21.790Z,1007.57
2023-11-23T03:37:21.641Z,1007.56
2023-11-23T03:38:21.659Z,1007.60
2023-11-23T03:39:21.860Z,1007.55
2023-11-23T03:40:21.616Z,1007.53
2023-11-23T03:41:21.670Z,1007.61
2023-11-23T03:42:21.688Z,1007.54
2023-11-23T03:43:21.630Z,1007.61
2023-11-23T03:44:21.610Z,1007.67
2023-11-23T03:45:21.596Z,1007.67
2023-11-23T03:46:21.648Z,1007.68
2023-11-23T03:47:21.576Z,1007.70
2023-11-23T03:48:21.640Z,1007.82
2023-11-23T03:49:21.522Z,1007.70
2023-11-23T03:50:21.537Z,1007.77
2023-11-23T03:51:21.570Z,1007.74
2023-11-23T03:52:21.549Z,1007.63
2023-11-23T03:53:21.493Z,1007.69
2023-11-23T03:54:21.501Z,1007.63
2023-11-23T03:55:21.459Z,1007.58
2023-11-23T03:56:21.504Z,1007.55
2023-11-23T03:57:21.462Z,1007.56
2023-11-23T03:58:21.418Z,1007.58
2023-11-23T03:59:21.445Z,1007.51
2023-11-23T04:00:21.432Z,1007.55
2023-11-23T04:01:21.406Z,1007.61
2023-11-23T04:02:21.494Z,1007.52
2023-11-23T04:03:21.392Z,1007.58
2023-11-23T04:04:21.576Z,1007.53
2023-11-23T04:05:21.353Z,1007.51
2023-11-23T04:06:21.443Z,1007.56
2023-11-23T04:07:21.346Z,1007.57
2023-11-23T04:08:21.328Z,1007.51
2023-11-23T04:09:21.401Z,1007.46
2023-11-23T04:10:21.323Z,1007.55
2023-11-23T04:11:21.274Z,1007.43
2023-11-23T04:12:21.358Z,1007.51
2023-11-23T04:13:21.310Z,1007.46
2023-11-23T04:14:21.255Z,1007.43
2023-11-23T04:15:21.376Z,1007.46
2023-11-23T04:16:21.243Z,1007.49
2023-11-23T04:17:21.279Z,1007.49
2023-11-23T04:18:21.248Z,1007.44
2023-11-23T04:19:21.215Z,1007.40
2023-11-23T04:20:21.209Z,1007.36
2023-11-23T04:21:21.193Z,1007.47
2023-11-23T04:22:21.214Z,1007.44
2023-11-23T04:23:21.145Z,1007.50
2023-11-23T04:24:21.200Z,1007.42
2023-11-23T04:25:21.142Z,1007.47
2023-11-23T04:26:21.141Z,1007.45
2023-11-23T04:27:21.160Z,1007.40
2023-11-23T04:28:21.115Z,1007.43
2023-11-23T04:29:21.098Z,1007.36
2023-11-23T04:30:21.089Z,1007.33
2023-11-23T04:31:21.075Z,1007.34
2023-11-23T04:32:21.096Z,1007.22
2023-11-23T04:33:21.228Z,1007.29
2023-11-23T04:34:21.107Z,1007.25
2023-11-23T04:35:21.042Z,1007.25
2023-11-23T04:36:21.035Z,1007.32
2023-11-23T04:37:21.026Z,1007.27
2023-11-23T04:38:21.003Z,1007.28
2023-11-23T04:39:21.013Z,1007.30
2023-11-23T04:40:21.005Z,1007.23
2023-11-23T04:41:20.968Z,1007.18
2023-11-23T04:42:21.048Z,1007.18
2023-11-23T04:43:20.983Z,1007.18
2023-11-23T04:44:20.938Z,1007.22
2023-11-23T04:45:20.941Z,1007.29
2023-11-23T04:46:20.970Z,1007.19
2023-11-23T04:47:20.940Z,1007.11
2023-11-23T04:48:20.985Z,1007.18
2023-11-23T04:49:20.883Z,1007.18
2023-11-23T04:50:22.590Z,1007.08
2023-11-23T04:51:20.873Z,1007.16
2023-11-23T04:52:20.841Z,1007.08
2023-11-23T04:53:20.828Z,1007.10
2023-11-23T04:54:20.937Z,1007.11
2023-11-23T04:55:20.831Z,1007.10
2023-11-23T04:56:20.820Z,1007.15
2023-11-23T04:57:20.851Z,1007.13
2023-11-23T04:58:23.278Z,1007.12
2023-11-23T04:59:20.758Z,1007.09
2023-11-23T05:00:20.832Z,1007.11
2023-11-23T05:01:20.785Z,1007.13
2023-11-23T05:02:20.726Z,1007.00
2023-11-23T05:03:20.754Z,1007.02
2023-11-23T05:04:20.767Z,1007.05
2023-11-23T05:05:20.724Z,1007.05
2023-11-23T05:06:20.737Z,1007.07
2023-11-23T05:07:20.695Z,1007.08
2023-11-23T05:08:20.671Z,1007.01
2023-11-23T05:09:20.681Z,1007.02
2023-11-23T05:10:20.661Z,1007.03
2023-11-23T05:11:20.664Z,1007.00
2023-11-23T05:12:20.671Z,1007.03
2023-11-23T05:13:20.634Z,1006.96
2023-11-23T05:14:20.608Z,1006.97
2023-11-23T05:15:20.690Z,1006.92
2023-11-23T05:16:20.628Z,1006.97
2023-11-23T05:17:20.577Z,1007.06
2023-11-23T05:18:20.632Z,1007.03
2023-11-23T05:19:31.688Z,1007.04
2023-11-23T05:20:21.557Z,1007.07
2023-11-23T05:21:20.543Z,1007.03
2023-11-23T05:22:20.546Z,1006.89
2023-11-23T05:23:20.527Z,1006.96
2023-11-23T05:24:20.523Z,1006.99
2023-11-23T05:25:20.505Z,1006.98
2023-11-23T05:26:20.533Z,1007.10
2023-11-23T05:27:20.496Z,1007.00
2023-11-23T05:28:20.467Z,1007.04
2023-11-23T05:29:20.457Z,1007.11
2023-11-23T05:30:20.499Z,1007.02
2023-11-23T05:31:20.455Z,1007.08
2023-11-23T05:32:20.414Z,1007.18
2023-11-23T05:33:22.384Z,1007.16
2023-11-23T05:34:20.418Z,1007.10
2023-11-23T05:35:20.400Z,1007.12
2023-11-23T05:36:20.415Z,1007.08
2023-11-23T05:37:20.367Z,1007.04
2023-11-23T05:38:20.354Z,1007.04
2023-11-23T05:39:20.383Z,1006.99
2023-11-23T05:40:20.327Z,1006.95
2023-11-23T05:41:20.325Z,1006.98
2023-11-23T05:42:20.356Z,1006.97
2023-11-23T05:43:20.362Z,1006.95
2023-11-23T05:44:20.324Z,1006.96
2023-11-23T05:45:20.322Z,1006.97
2023-11-23T05:46:20.329Z,1006.99
2023-11-23T05:47:20.266Z,1007.02
2023-11-23T05:48:20.354Z,1007.01
2023-11-23T05:49:20.224Z,1006.99
2023-11-23T05:50:20.267Z,1007.04
2023-11-23T05:51:21.692Z,1006.88
2023-11-23T05:52:20.198Z,1006.92
2023-11-23T05:53:20.209Z,1006.97
2023-11-23T05:54:20.207Z,1006.98
2023-11-23T05:55:20.158Z,1007.00
2023-11-23T05:56:20.169Z,1006.86
2023-11-23T05:57:20.192Z,1006.92
2023-11-23T05:58:20.136Z,1006.84
2023-11-23T05:59:20.166Z,1006.87
2023-11-23T06:00:20.189Z,1006.85
2023-11-23T06:01:20.096Z,1006.80
2023-11-23T06:02:20.208Z,1006.77
2023-11-23T06:03:22.801Z,1006.92
2023-11-23T06:04:20.300Z,1006.85
2023-11-23T06:05:20.159Z,1006.80
2023-11-23T06:06:20.328Z,1006.72
2023-11-23T06:07:20.037Z,1006.72
2023-11-23T06:08:20.026Z,1006.79
2023-11-23T06:09:20.041Z,1006.66
2023-11-23T06:10:20.022Z,1006.73
2023-11-23T06:11:20.129Z,1006.74
2023-11-23T06:12:20.052Z,1006.65
2023-11-23T06:13:19.983Z,1006.81
2023-11-23T06:14:20.063Z,1006.70
2023-11-23T06:15:19.966Z,1006.68
2023-11-23T06:16:20.082Z,1006.68
2023-11-23T06:17:19.935Z,1006.74
2023-11-23T06:18:20.025Z,1006.58
2023-11-23T06:19:19.937Z,1006.53
2023-11-23T06:20:19.903Z,1006.57
2023-11-23T06:21:19.961Z,1006.58
2023-11-23T06:22:19.872Z,1006.63
2023-11-23T06:23:19.874Z,1006.61
2023-11-23T06:24:19.899Z,1006.54
2023-11-23T06:25:19.841Z,1006.62
2023-11-23T06:26:19.838Z,1006.62
2023-11-23T06:27:19.846Z,1006.59
2023-11-23T06:28:19.805Z,1006.64
2023-11-23T06:29:19.794Z,1006.72
2023-11-23T06:30:19.902Z,1006.62
2023-11-23T06:31:19.878Z,1006.62
2023-11-23T06:32:19.843Z,1006.65
2023-11-23T06:33:19.877Z,1006.59
2023-11-23T06:34:19.799Z,1006.55
2023-11-23T06:35:19.809Z,1006.65
2023-11-23T06:36:19.804Z,1006.60
2023-11-23T06:37:19.731Z,1006.53
2023-11-23T06:38:19.721Z,1006.54
2023-11-23T06:39:19.705Z,1006.57
2023-11-23T06:40:19.734Z,1006.54
2023-11-23T06:41:19.723Z,1006.54
2023-11-23T06:42:19.699Z,1006.52
2023-11-23T06:43:19.754Z,1006.64
2023-11-23T06:44:19.670Z,1006.58
2023-11-23T06:45:19.630Z,1006.60
2023-11-23T06:46:19.686Z,1006.65
2023-11-23T06:47:19.676Z,1006.58
2023-11-23T06:48:19.711Z,1006.57
2023-11-23T06:49:19.712Z,1006.49
2023-11-23T06:50:19.604Z,1006.42
2023-11-23T06:51:19.586Z,1006.38
2023-11-23T06:52:19.560Z,1006.46
2023-11-23T06:53:19.538Z,1006.41
2023-11-23T06:54:19.590Z,1006.44
2023-11-23T06:55:19.527Z,1006.39
2023-11-23T06:56:19.544Z,1006.36
2023-11-23T06:57:19.550Z,1006.32
2023-11-23T06:58:19.517Z,1006.25
2023-11-23T06:59:19.505Z,1006.26
2023-11-23T07:00:19.463Z,1006.19
2023-11-23T07:01:19.477Z,1006.16
2023-11-23T07:02:19.530Z,1006.17
2023-11-23T07:03:19.455Z,1006.07
2023-11-23T07:04:19.477Z,1005.93
2023-11-23T07:05:19.429Z,1006.02
2023-11-23T07:06:19.471Z,1005.92
2023-11-23T07:07:19.386Z,1005.98
2023-11-23T07:08:19.413Z,1006.01
2023-11-23T07:09:19.407Z,1005.93
2023-11-23T07:10:20.715Z,1005.96
2023-11-23T07:11:19.481Z,1006.03
2023-11-23T07:12:19.370Z,1006.03
2023-11-23T07:13:19.436Z,1005.96
2023-11-23T07:14:19.359Z,1005.99
2023-11-23T07:15:19.932Z,1006.01
2023-11-23T07:16:19.514Z,1006.05
2023-11-23T07:17:19.288Z,1006.12
2023-11-23T07:18:19.724Z,1006.09
2023-11-23T07:19:19.280Z,1006.16
2023-11-23T07:20:19.255Z,1006.17
2023-11-23T07:21:19.324Z,1006.25
2023-11-23T07:22:19.240Z,1006.28
2023-11-23T07:23:19.225Z,1006.23
2023-11-23T07:24:19.309Z,1006.09
2023-11-23T07:25:19.212Z,1006.11
2023-11-23T07:26:19.189Z,1006.15
2023-11-23T07:27:19.194Z,1006.11
2023-11-23T07:28:19.173Z,1006.00
2023-11-23T07:29:19.153Z,1006.07
2023-11-23T07:30:19.190Z,1005.97
2023-11-23T07:31:19.178Z,1005.97
2023-11-23T07:32:19.109Z,1005.84
2023-11-23T07:33:19.290Z,1005.96
2023-11-23T07:34:19.121Z,1005.89
2023-11-23T07:35:19.087Z,1005.84
2023-11-23T07:36:19.113Z,1005.85
2023-11-23T07:37:19.085Z,1005.88
2023-11-23T07:38:19.879Z,1005.86
2023-11-23T07:39:19.072Z,1005.75
2023-11-23T07:40:19.023Z,1005.82
2023-11-23T07:41:19.021Z,1005.82
2023-11-23T07:42:20.564Z,1005.94
2023-11-23T07:43:19.012Z,1005.85
2023-11-23T07:44:18.980Z,1005.88
2023-11-23T07:45:19.063Z,1005.74
2023-11-23T07:46:18.968Z,1005.82
2023-11-23T07:47:18.974Z,1005.76
2023-11-23T07:48:19.041Z,1005.85
2023-11-23T07:49:18.925Z,1005.83
2023-11-23T07:50:18.942Z,1005.96
2023-11-23T07:51:18.956Z,1005.82
2023-11-23T07:52:18.911Z,1005.74
2023-11-23T07:53:21.685Z,1005.83
2023-11-23T07:54:18.971Z,1005.75
2023-11-23T07:55:18.905Z,1005.73
2023-11-23T07:56:18.849Z,1005.79
2023-11-23T07:57:18.864Z,1005.83
2023-11-23T07:58:18.901Z,1005.71
2023-11-23T07:59:18.825Z,1005.70
2023-11-23T08:00:18.885Z,1005.71
2023-11-23T08:01:18.807Z,1005.70
2023-11-23T08:02:18.783Z,1005.66
2023-11-23T08:03:18.920Z,1005.62
2023-11-23T08:04:18.817Z,1005.68
2023-11-23T08:05:18.756Z,1005.52
2023-11-23T08:06:20.615Z,1005.59
2023-11-23T08:07:18.746Z,1005.63
2023-11-23T08:08:18.740Z,1005.60
2023-11-23T08:09:18.711Z,1005.65
2023-11-23T08:10:18.709Z,1005.59
2023-11-23T08:11:18.721Z,1005.64
2023-11-23T08:12:18.707Z,1005.62
2023-11-23T08:13:18.689Z,1005.63
2023-11-23T08:14:18.644Z,1005.64
2023-11-23T08:15:18.684Z,1005.65
2023-11-23T08:16:18.667Z,1005.68
2023-11-23T08:17:18.647Z,1005.72
2023-11-23T08:18:18.712Z,1005.65
2023-11-23T08:19:18.682Z,1005.67
2023-11-23T08:20:18.600Z,1005.65
2023-11-23T08:21:18.700Z,1005.58
2023-11-23T08:22:18.573Z,1005.61
2023-11-23T08:23:18.541Z,1005.54
2023-11-23T08:24:18.806Z,1005.55
2023-11-23T08:25:18.528Z,1005.48
2023-11-23T08:26:18.557Z,1005.58
2023-11-23T08:27:18.539Z,1005.56
2023-11-23T08:28:18.509Z,1005.58
2023-11-23T08:29:18.501Z,1005.38
2023-11-23T08:30:18.545Z,1005.43
2023-11-23T08:31:18.509Z,1005.45
2023-11-23T08:32:18.444Z,1005.45
2023-11-23T08:33:18.497Z,1005.50
2023-11-23T08:34:18.426Z,1005.43
2023-11-23T08:35:18.419Z,1005.44
2023-11-23T08:36:18.540Z,1005.46
2023-11-23T08:37:18.392Z,1005.43
2023-11-23T08:38:18.418Z,1005.44
2023-11-23T08:39:18.426Z,1005.42
2023-11-23T08:40:18.385Z,1005.40
2023-11-23T08:41:18.391Z,1005.37
2023-11-23T08:42:18.356Z,1005.36
2023-11-23T08:43:18.322Z,1005.41
2023-11-23T08:44:18.323Z,1005.39
2023-11-23T08:45:18.417Z,1005.30
2023-11-23T08:46:18.352Z,1005.33
2023-11-23T08:47:18.318Z,1005.39
2023-11-23T08:48:18.343Z,1005.29
2023-11-23T08:49:18.264Z,1005.30
2023-11-23T08:50:18.246Z,1005.43
2023-11-23T08:51:18.253Z,1005.40
2023-11-23T08:52:18.221Z,1005.33
2023-11-23T08:53:18.242Z,1005.29
2023-11-23T08:54:18.233Z,1005.30
2023-11-23T08:55:18.204Z,1005.24
2023-11-23T08:56:18.202Z,1005.35
2023-11-23T08:57:18.237Z,1005.29
2023-11-23T08:58:18.160Z,1005.34
2023-11-23T08:59:18.159Z,1005.18
2023-11-23T09:00:18.139Z,1005.31
2023-11-23T09:01:18.260Z,1005.23
2023-11-23T09:02:20.853Z,1005.25
2023-11-23T09:03:18.183Z,1005.19
2023-11-23T09:04:18.270Z,1005.28
2023-11-23T09:05:18.202Z,1005.15
2023-11-23T09:06:18.180Z,1005.18
2023-11-23T09:07:18.118Z,1005.05
2023-11-23T09:08:18.052Z,1005.08
2023-11-23T09:09:19.750Z,1005.15
2023-11-23T09:10:18.053Z,1005.09
2023-11-23T09:11:18.027Z,1005.18
2023-11-23T09:12:18.053Z,1005.11
2023-11-23T09:13:17.993Z,1005.00
2023-11-23T09:14:17.988Z,1005.02
2023-11-23T09:15:17.985Z,1004.88
2023-11-23T09:16:18.032Z,1004.82
2023-11-23T09:17:18.545Z,1004.87
2023-11-23T09:18:18.064Z,1004.81
2023-11-23T09:19:17.983Z,1004.77
2023-11-23T09:20:17.934Z,1004.73
2023-11-23T09:21:17.952Z,1004.71
2023-11-23T09:22:17.903Z,1004.76
2023-11-23T09:23:17.879Z,1004.76
2023-11-23T09:24:17.872Z,1004.75
2023-11-23T09:25:17.859Z,1004.71
2023-11-23T09:26:17.849Z,1004.68
2023-11-23T09:27:17.885Z,1004.66
2023-11-23T09:28:17.853Z,1004.67
2023-11-23T09:29:17.856Z,1004.68
2023-11-23T09:30:17.839Z,1004.76
2023-11-23T09:31:17.824Z,1004.70
2023-11-23T09:32:17.783Z,1004.70
2023-11-23T09:33:20.303Z,1004.75
2023-11-23T09:34:17.757Z,1004.70
2023-11-23T09:35:17.746Z,1004.71
2023-11-23T09:36:17.766Z,1004.69
2023-11-23T09:37:17.743Z,1004.62
2023-11-23T09:38:17.712Z,1004.65
2023-11-23T09:39:17.772Z,1004.74
2023-11-23T09:40:17.713Z,1004.77
2023-11-23T09:41:17.692Z,1004.77
2023-11-23T09:42:17.716Z,1004.48
2023-11-23T09:43:17.667Z,1004.59
2023-11-23T09:44:17.669Z,1004.65
2023-11-23T09:45:17.656Z,1004.66
2023-11-23T09:46:17.671Z,1004.61
2023-11-23T09:47:17.652Z,1004.50
2023-11-23T09:48:17.674Z,1004.66
2023-11-23T09:49:17.587Z,1004.66
2023-11-23T09:50:17.586Z,1004.65
2023-11-23T09:51:17.614Z,1004.74
2023-11-23T09:52:17.579Z,1004.70
2023-11-23T09:53:17.568Z,1004.61
2023-11-23T09:54:17.596Z,1004.55
2023-11-23T09:55:17.545Z,1004.56
2023-11-23T09:56:17.528Z,1004.53
2023-11-23T09:57:17.581Z,1004.53
2023-11-23T09:58:17.499Z,1004.49
2023-11-23T09:59:17.525Z,1004.37
2023-11-23T10:00:17.534Z,1004.36
2023-11-23T10:01:17.476Z,1004.33
2023-11-23T10:02:17.463Z,1004.26
2023-11-23T10:03:17.505Z,1004.28
2023-11-23T10:04:17.701Z,1004.13
2023-11-23T10:05:17.466Z,1004.09
2023-11-23T10:06:17.465Z,1004.05
2023-11-23T10:07:17.393Z,1004.02
2023-11-23T10:08:17.398Z,1004.00
2023-11-23T10:09:17.456Z,1003.94
2023-11-23T10:10:17.390Z,1003.98
2023-11-23T10:11:17.356Z,1003.99
2023-11-23T10:12:17.397Z,1003.82
2023-11-23T10:13:17.325Z,1003.86
2023-11-23T10:14:17.503Z,1003.68
2023-11-23T10:15:17.468Z,1003.72
2023-11-23T10:16:17.388Z,1003.73
2023-11-23T10:17:17.290Z,1003.65
2023-11-23T10:18:17.346Z,1003.69
2023-11-23T10:19:25.224Z,1003.64
2023-11-23T10:20:17.276Z,1003.59
2023-11-23T10:21:17.285Z,1003.57
2023-11-23T10:22:17.281Z,1003.59
2023-11-23T10:23:17.217Z,1003.52
2023-11-23T10:24:17.250Z,1003.42
2023-11-23T10:25:17.211Z,1003.23
2023-11-23T10:26:17.189Z,1003.35
2023-11-23T10:27:17.253Z,1003.36
2023-11-23T10:28:17.173Z,1003.23
2023-11-23T10:29:17.150Z,1003.27
2023-11-23T10:30:17.254Z,1003.28
2023-11-23T10:31:17.146Z,1003.43
2023-11-23T10:32:17.135Z,1003.38
2023-11-23T10:33:17.181Z,1003.43
2023-11-23T10:34:17.119Z,1003.22
2023-11-23T10:35:17.101Z,1003.29
2023-11-23T10:36:17.113Z,1003.16
2023-11-23T10:37:17.076Z,1003.27
2023-11-23T10:38:17.062Z,1003.19
2023-11-23T10:39:17.076Z,1003.10
2023-11-23T10:40:17.043Z,1003.04
2023-11-23T10:41:17.022Z,1003.19
2023-11-23T10:42:17.048Z,1003.24
2023-11-23T10:43:17.086Z,1003.21
2023-11-23T10:44:17.024Z,1003.23
2023-11-23T10:45:17.181Z,1003.05
2023-11-23T10:46:17.097Z,1003.19
2023-11-23T10:47:17.023Z,1003.01
2023-11-23T10:48:17.100Z,1003.02
2023-11-23T10:49:17.023Z,1002.94
2023-11-23T10:50:17.008Z,1002.89
2023-11-23T10:51:17.043Z,1002.92
2023-11-23T10:52:16.949Z,1002.87
2023-11-23T10:53:16.989Z,1003.00
2023-11-23T10:54:16.909Z,1002.85
2023-11-23T10:55:16.895Z,1002.73
2023-11-23T10:56:16.866Z,1002.78
2023-11-23T10:57:16.900Z,1002.72
2023-11-23T10:58:16.836Z,1002.73
2023-11-23T10:59:16.823Z,1002.70
2023-11-23T11:00:24.019Z,1002.70
2023-11-23T11:01:16.815Z,1002.73
2023-11-23T11:02:16.818Z,1002.60
2023-11-23T11:03:16.840Z,1002.69
2023-11-23T11:04:16.826Z,1002.59
2023-11-23T11:05:16.770Z,1002.52
2023-11-23T11:06:16.794Z,1002.55
2023-11-23T11:07:16.741Z,1002.49
2023-11-23T11:08:16.730Z,1002.49
2023-11-23T11:09:16.808Z,1002.39
2023-11-23T11:10:16.710Z,1002.40
2023-11-23T11:11:16.725Z,1002.45
2023-11-23T11:12:16.876Z,1002.49
2023-11-23T11:13:16.758Z,1002.39
2023-11-23T11:14:16.659Z,1002.48
2023-11-23T11:15:16.677Z,1002.39
2023-11-23T11:16:16.659Z,1002.32
2023-11-23T11:17:16.631Z,1002.20
2023-11-23T11:18:16.697Z,1002.17
2023-11-23T11:19:16.654Z,1002.23
2023-11-23T11:20:16.639Z,1002.22
2023-11-23T11:21:16.687Z,1002.31
2023-11-23T11:22:16.576Z,1002.29
2023-11-23T11:23:16.566Z,1002.26
2023-11-23T11:24:16.593Z,1002.21
2023-11-23T11:25:16.549Z,1002.27
2023-11-23T11:26:16.533Z,1002.21
2023-11-23T11:27:16.588Z,1002.33
2023-11-23T11:28:16.514Z,1002.29
2023-11-23T11:29:16.581Z,1002.30
2023-11-23T11:30:16.513Z,1002.24
2023-11-23T11:31:16.591Z,1002.25
2023-11-23T11:32:16.498Z,1002.21
2023-11-23T11:33:16.547Z,1002.19
2023-11-23T11:34:16.483Z,1002.20
2023-11-23T11:35:16.431Z,1002.23
2023-11-23T11:36:16.477Z,1002.22
2023-11-23T11:37:16.409Z,1002.17
2023-11-23T11:38:16.432Z,1002.04
2023-11-23T11:39:16.439Z,1002.16
2023-11-23T11:40:16.410Z,1002.03
2023-11-23T11:41:16.371Z,1002.11
2023-11-23T11:42:16.399Z,1002.11
2023-11-23T11:43:16.418Z,1002.13
2023-11-23T11:44:16.339Z,1002.06
2023-11-23T11:45:16.397Z,1002.10
2023-11-23T11:46:16.387Z,1002.04
2023-11-23T11:47:16.307Z,1002.16
2023-11-23T11:48:16.363Z,1002.08
2023-11-23T11:49:16.293Z,1002.10
2023-11-23T11:50:16.290Z,1002.06
2023-11-23T11:51:16.321Z,1001.92
2023-11-23T11:52:16.291Z,1001.99
2023-11-23T11:53:16.241Z,1001.97
2023-11-23T11:54:16.279Z,1001.87
2023-11-23T11:55:16.233Z,1001.92
2023-11-23T11:56:16.209Z,1001.85
2023-11-23T11:57:16.248Z,1001.78
2023-11-23T11:58:16.192Z,1001.84
2023-11-23T11:59:16.176Z,1001.76
2023-11-23T12:00:16.200Z,1001.70
2023-11-23T12:01:16.151Z,1001.67
2023-11-23T12:02:16.254Z,1001.67
2023-11-23T12:03:16.226Z,1001.62
2023-11-23T12:04:16.169Z,1001.70
2023-11-23T12:05:16.128Z,1001.56
2023-11-23T12:06:16.152Z,1001.50